Caracas, Venezuela

9:18 PM VET on December 10, 2016 (GMT -0400)
Estacion Neveri Macuto Venezuela | | Change Station

Elev 16 ft 10.60 °N, 66.90 °W | Updated 18 minutes ago

Scattered Clouds
Scattered Clouds
81.1 °F
Feels Like 91 °F
N
0.0
Wind Variable Wind from North
Gusts 0.0 mph

Today
High -- | Low -- °F
--% Chance of Precip.
Yesterday
High -- | Low -- °F
Precip. -- in
Pressure 29.89 in
Visibility 6.2 miles
Clouds Scattered Clouds 1600 ft
Heat Index 91 °F
Dew Point 81 °F
Humidity 99%
Rainfall 0.00 in
Snow Depth Not available.
6:35 AM 6:06 PM
Waxing Gibbous, 87% visible
METAR SVMI 110100Z 00000KT 9999 SCT016 28/19 Q1012
Pressure 29.89 in
Visibility 6.2 miles
Clouds Scattered Clouds 1600 ft
Heat Index 91 °F
Dew Point 81 °F
Humidity 99%
Rainfall 0.00 in
Snow Depth Not available.
6:35 AM 6:06 PM
Waxing Gibbous, 87% visible
METAR SVMI 110100Z 00000KT 9999 SCT016 28/19 Q1012

10-Day Weather Forecast

No radar image for this location.
×

Almanac

Astronomy

Dec. 10, 2016 Rise Set
Actual Time
Civil Twilight
Nautical Twilight
Astronomical Twilight
Moon
Length of Visible Light
Length of Day
Tomorrow will be .
, % of the Moon is Illuminated

Today's Extremes

Country Highs Country Lows

Community

WunderPhotos

Upload Photos

1,956,686 photos uploaded!

WunderBlog® & News

Nearby

Air Quality

  Air Quality AQ Index Pollutant
Not available.

Snow Depth

Station Depth Elevation

Earthquake Activity

City Distance Mag. Time & Date
Minimum magnitude displayed is 2.5.

Coastal Water Temperatures

Place Temperature

Stations

Nearby Weather Stations

Station Location Temp. Windchill Dew Point Humidity Wind Precip. Elev Updated Type